Time;durP1;ratioP1;P1;durP2;ratioP2;P2;SDS_P1;SDS_P2;PMS_P1;PMS_P2;Temp;Humidity;BMP_temperature;BMP_pressure;BME280_temperature;BME280_humidity;BME280_pressure;Samples;Min_cycle;Max_cycle;Signal;HPM_P1;HPM_P2
2021/09/30 00:00:17;;;;;;;6.72;3.45;;;15.30;99.90;;;;;;5014894;28;20030;-68
2021/09/30 00:02:44;;;;;;;4.20;3.20;;;15.30;99.90;;;;;;4997435;28;20025;-67
2021/09/30 00:05:10;;;;;;;4.40;3.15;;;15.30;99.90;;;;;;5014894;28;20378;-67
2021/09/30 00:07:37;;;;;;;8.20;3.85;;;15.30;99.90;;;;;;4997294;28;20116;-69
2021/09/30 00:10:06;;;;;;;6.47;4.20;;;15.30;99.90;;;;;;5014791;28;20489;-65
2021/09/30 00:12:36;;;;;;;5.57;3.00;;;15.30;99.90;;;;;;5014633;28;20072;-69
2021/09/30 00:15:09;;;;;;;3.95;3.10;;;15.20;99.90;;;;;;5015028;28;20025;-66
2021/09/30 00:41:44;;;;;;;3.90;2.70;;;15.10;99.90;;;;;;5014288;28;20045;-66
2021/09/30 00:49:54;;;;;;;2.92;2.67;;;14.90;99.90;;;;;;5014144;28;20451;-68
2021/09/30 02:59:16;;;;;;;7.32;4.05;;;14.60;99.90;;;;;;5016179;28;20108;-68
2021/09/30 03:01:46;;;;;;;9.25;4.68;;;14.50;99.90;;;;;;5016121;28;20030;-69
2021/09/30 03:04:13;;;;;;;5.32;4.30;;;14.50;99.90;;;;;;5016077;28;20084;-68
2021/09/30 03:06:41;;;;;;;5.53;4.25;;;14.50;99.90;;;;;;5016025;28;20034;-68
2021/09/30 03:09:09;;;;;;;5.63;4.25;;;14.50;99.90;;;;;;5015910;28;20022;-67
2021/09/30 03:11:37;;;;;;;5.93;4.50;;;14.50;99.90;;;;;;4983612;28;20053;-67
2021/09/30 03:14:05;;;;;;;4.65;4.07;;;14.60;99.90;;;;;;4978273;28;20046;-66
2021/09/30 03:16:41;;;;;;;5.13;3.83;;;14.50;99.90;;;;;;4995556;28;20479;-68
2021/09/30 03:19:31;;;;;;;7.88;4.93;;;14.40;99.90;;;;;;4995886;28;20073;-66
2021/09/30 03:22:17;;;;;;;6.38;4.57;;;14.40;99.90;;;;;;4995551;28;20050;-68
2021/09/30 03:24:46;;;;;;;6.22;4.65;;;14.40;99.90;;;;;;4993790;28;20037;-67
2021/09/30 03:27:13;;;;;;;8.32;5.05;;;14.30;99.90;;;;;;4978168;28;20033;-68
2021/09/30 03:29:39;;;;;;;5.85;5.22;;;14.20;99.90;;;;;;4977863;28;20035;-68
2021/09/30 03:32:06;;;;;;;13.40;4.85;;;14.20;99.90;;;;;;4976159;28;20146;-66
2021/09/30 03:34:33;;;;;;;9.52;5.63;;;14.20;99.90;;;;;;4995267;28;20060;-68
2021/09/30 03:37:02;;;;;;;5.65;5.00;;;14.20;99.90;;;;;;4995389;28;20026;-65
2021/09/30 03:39:28;;;;;;;9.07;5.50;;;14.20;99.90;;;;;;4995838;28;20064;-67
2021/09/30 03:41:55;;;;;;;7.85;5.70;;;14.20;99.90;;;;;;4993157;28;20042;-67
2021/09/30 03:44:21;;;;;;;8.57;5.70;;;14.10;99.90;;;;;;5010857;28;20125;-69
2021/09/30 03:46:51;;;;;;;8.18;5.82;;;14.10;99.90;;;;;;4995488;28;20018;-68
2021/09/30 03:49:25;;;;;;;8.98;5.80;;;14.00;99.90;;;;;;4976176;28;20037;-67
2021/09/30 03:52:07;;;;;;;7.85;6.05;;;14.00;99.90;;;;;;4995394;28;20133;-69
2021/09/30 03:59:27;;;;;;;7.32;5.82;;;13.90;99.90;;;;;;4995422;28;20026;-68
2021/09/30 04:01:58;;;;;;;8.30;5.88;;;13.90;99.90;;;;;;4995083;28;20026;-70
2021/09/30 04:04:26;;;;;;;8.55;6.30;;;13.90;99.90;;;;;;4995414;28;20451;-68
2021/09/30 04:06:55;;;;;;;9.02;5.18;;;14.00;99.90;;;;;;5010369;28;20037;-68
2021/09/30 04:09:26;;;;;;;8.25;6.13;;;14.00;99.90;;;;;;5010295;28;20031;-68
2021/09/30 04:11:56;;;;;;;9.85;6.30;;;14.10;99.90;;;;;;4977745;28;20054;-70
2021/09/30 04:14:22;;;;;;;10.25;6.38;;;14.10;99.90;;;;;;4977690;28;20045;-70
2021/09/30 04:16:49;;;;;;;10.05;6.10;;;14.10;99.90;;;;;;4977637;28;20451;-70
2021/09/30 04:19:16;;;;;;;12.63;6.60;;;14.10;99.90;;;;;;4995038;28;20483;-68
2021/09/30 04:21:43;;;;;;;7.60;6.10;;;14.10;99.90;;;;;;4994740;28;20383;-67
2021/09/30 04:24:09;;;;;;;8.05;5.65;;;14.10;99.90;;;;;;4995180;28;20056;-69
2021/09/30 04:26:34;;;;;;;11.38;7.28;;;14.10;99.90;;;;;;4977367;28;20498;-67
2021/09/30 04:29:00;;;;;;;11.82;6.75;;;14.10;99.90;;;;;;4994898;28;20034;-68
2021/09/30 04:31:26;;;;;;;7.63;6.18;;;14.20;99.90;;;;;;4977137;28;20026;-68
2021/09/30 04:33:52;;;;;;;9.60;6.75;;;14.20;99.90;;;;;;4994973;28;20053;-68
2021/09/30 04:36:21;;;;;;;10.52;6.82;;;14.20;99.90;;;;;;4994668;28;20034;-67
2021/09/30 04:38:48;;;;;;;14.82;7.15;;;14.20;99.90;;;;;;4977154;28;20430;-67
2021/09/30 04:41:14;;;;;;;7.70;6.25;;;14.20;99.90;;;;;;4977226;28;20027;-68
2021/09/30 04:43:41;;;;;;;9.98;6.63;;;14.30;99.90;;;;;;4994277;28;20026;-68
2021/09/30 04:46:07;;;;;;;9.15;5.47;;;14.30;99.90;;;;;;4977067;28;20423;-66
2021/09/30 04:48:32;;;;;;;9.60;5.93;;;14.30;99.90;;;;;;4994530;28;20098;-67
2021/09/30 04:50:58;;;;;;;11.82;6.05;;;14.30;99.90;;;;;;4994181;28;20038;-65
2021/09/30 04:53:24;;;;;;;8.75;6.03;;;14.30;99.90;;;;;;4994333;28;20038;-65
2021/09/30 04:55:50;;;;;;;10.27;6.43;;;14.40;99.90;;;;;;4994132;28;20027;-65
2021/09/30 04:58:16;;;;;;;11.70;6.60;;;14.40;99.90;;;;;;4994300;28;20459;-69
2021/09/30 05:00:42;;;;;;;9.90;6.85;;;14.40;99.90;;;;;;4994239;28;20038;-67
2021/09/30 05:03:07;;;;;;;15.05;6.63;;;14.50;99.90;;;;;;4976768;28;20041;-65
2021/09/30 05:05:33;;;;;;;9.85;6.63;;;14.50;99.90;;;;;;4994204;28;20037;-67
2021/09/30 05:07:59;;;;;;;7.68;6.05;;;14.50;99.90;;;;;;4994082;28;20413;-66
2021/09/30 05:10:34;;;;;;;11.88;6.85;;;14.60;99.90;;;;;;4994347;28;20038;-69
2021/09/30 05:13:06;;;;;;;9.27;7.45;;;14.60;99.90;;;;;;4994087;28;20022;-69
2021/09/30 05:15:33;;;;;;;10.77;7.10;;;14.60;99.90;;;;;;4976619;28;20089;-65
2021/09/30 05:18:00;;;;;;;10.20;6.90;;;14.60;99.90;;;;;;4994088;28;20458;-67
2021/09/30 05:20:26;;;;;;;8.20;6.40;;;14.60;99.90;;;;;;4993986;28;20062;-69
2021/09/30 05:22:52;;;;;;;8.27;6.30;;;14.70;99.90;;;;;;4976533;28;20085;-66
2021/09/30 05:25:18;;;;;;;11.65;6.78;;;14.60;99.90;;;;;;4976433;28;20034;-68
2021/09/30 05:27:44;;;;;;;10.30;7.00;;;14.70;99.90;;;;;;4993815;28;20025;-66
2021/09/30 05:33:21;;;;;;;12.32;7.40;;;14.70;99.90;;;;;;4991642;28;20057;-66
2021/09/30 05:35:48;;;;;;;8.63;6.45;;;14.70;99.90;;;;;;4976122;28;20030;-67
2021/09/30 05:38:14;;;;;;;10.25;6.85;;;14.70;99.90;;;;;;4993947;28;20037;-66
2021/09/30 05:40:41;;;;;;;8.32;6.57;;;14.70;99.90;;;;;;4993640;28;20030;-69
2021/09/30 05:43:11;;;;;;;11.32;7.05;;;14.70;99.90;;;;;;4990593;28;20026;-66
2021/09/30 05:45:42;;;;;;;10.85;7.00;;;14.70;99.90;;;;;;4992823;28;20030;-66
2021/09/30 05:48:08;;;;;;;11.30;6.70;;;14.80;99.90;;;;;;4993547;28;20364;-67
2021/09/30 05:50:35;;;;;;;8.73;6.80;;;14.80;99.90;;;;;;4975908;28;20427;-69
2021/09/30 05:53:01;;;;;;;8.57;6.85;;;14.90;99.90;;;;;;4992868;28;20022;-66
2021/09/30 05:55:27;;;;;;;14.52;7.18;;;14.90;99.90;;;;;;4977906;28;20077;-69
2021/09/30 05:57:53;;;;;;;9.48;6.70;;;15.00;99.90;;;;;;4997151;28;20459;-69
2021/09/30 06:11:18;;;;;;;8.63;6.53;;;15.30;99.90;;;;;;4997139;28;20041;-69
2021/09/30 06:13:57;;;;;;;13.18;7.15;;;15.40;99.90;;;;;;4997216;28;20034;-67
2021/09/30 06:16:25;;;;;;;15.77;8.85;;;15.40;99.90;;;;;;4997169;28;20474;-68
2021/09/30 06:18:51;;;;;;;12.23;6.85;;;15.50;99.90;;;;;;4979328;28;20122;-70
2021/09/30 06:21:17;;;;;;;9.50;6.25;;;15.50;99.90;;;;;;4996865;28;20473;-68
2021/09/30 06:23:43;;;;;;;9.40;6.82;;;15.60;99.90;;;;;;4996800;28;20431;-67
2021/09/30 06:26:09;;;;;;;10.40;6.85;;;15.70;99.90;;;;;;4979479;28;20057;-68
2021/09/30 06:28:35;;;;;;;10.95;7.00;;;15.70;99.90;;;;;;4996977;28;20062;-66
2021/09/30 06:31:01;;;;;;;15.05;6.90;;;15.80;99.90;;;;;;4996414;28;20427;-69
2021/09/30 06:33:27;;;;;;;10.15;6.10;;;15.70;99.90;;;;;;4996472;28;20101;-65
2021/09/30 06:35:53;;;;;;;11.13;6.05;;;15.80;99.90;;;;;;4996803;28;20034;-68
2021/09/30 06:38:20;;;;;;;11.65;6.47;;;15.80;99.90;;;;;;4979228;28;20034;-66
2021/09/30 06:40:46;;;;;;;14.30;6.43;;;15.70;99.90;;;;;;4979263;28;20136;-68
2021/09/30 06:43:12;;;;;;;9.77;6.30;;;15.80;99.90;;;;;;4996545;28;20038;-67
2021/09/30 06:45:39;;;;;;;10.68;6.57;;;15.90;99.90;;;;;;4996959;28;20109;-67
2021/09/30 06:48:05;;;;;;;8.45;6.57;;;15.90;99.90;;;;;;4996217;28;20248;-70
2021/09/30 06:50:31;;;;;;;8.88;6.53;;;16.00;99.90;;;;;;4979027;28;20360;-67
2021/09/30 06:52:59;;;;;;;9.27;6.57;;;16.00;99.90;;;;;;4996362;28;20026;-70
2021/09/30 06:55:24;;;;;;;10.80;7.68;;;16.00;99.90;;;;;;4996524;28;20030;-69
2021/09/30 06:57:51;;;;;;;13.75;7.43;;;16.10;99.90;;;;;;4995872;28;20440;-70
2021/09/30 07:00:17;;;;;;;11.88;7.28;;;16.20;99.90;;;;;;4992942;28;20026;-70
2021/09/30 07:02:44;;;;;;;9.68;6.82;;;16.20;99.90;;;;;;4978427;28;20083;-69
2021/09/30 07:05:12;;;;;;;14.75;6.82;;;16.20;99.90;;;;;;4995607;28;20100;-67
2021/09/30 07:07:39;;;;;;;10.07;6.60;;;16.20;99.90;;;;;;4974715;28;20030;-69
2021/09/30 07:10:06;;;;;;;15.57;9.75;;;16.30;99.90;;;;;;4996101;28;20113;-69
2021/09/30 07:12:32;;;;;;;15.63;7.22;;;16.30;99.90;;;;;;4996007;28;20102;-68
2021/09/30 07:14:58;;;;;;;11.63;6.47;;;16.30;99.90;;;;;;4995329;28;20129;-68
2021/09/30 07:17:25;;;;;;;13.48;7.10;;;16.30;99.90;;;;;;4996018;28;20058;-68
2021/09/30 07:19:51;;;;;;;10.52;6.85;;;16.40;99.90;;;;;;4993844;28;20485;-68
2021/09/30 07:22:16;;;;;;;9.75;6.55;;;16.30;99.90;;;;;;4977256;28;20065;-72
2021/09/30 07:24:42;;;;;;;19.02;10.63;;;16.20;99.90;;;;;;4977800;28;20054;-70
2021/09/30 07:27:09;;;;;;;55.33;25.38;;;16.20;99.90;;;;;;4977965;28;20031;-69
2021/09/30 07:29:36;;;;;;;50.22;23.23;;;16.10;99.90;;;;;;4977849;28;20489;-71
2021/09/30 07:32:03;;;;;;;34.38;16.55;;;16.10;99.90;;;;;;4981916;28;20104;-69
2021/09/30 07:34:30;;;;;;;16.40;10.02;;;16.10;99.90;;;;;;5015074;28;20034;-70
2021/09/30 07:36:56;;;;;;;25.92;12.90;;;16.10;99.90;;;;;;5014845;28;20083;-71
2021/09/30 07:39:23;;;;;;;35.95;15.23;;;16.10;99.90;;;;;;5014880;28;20026;-71
2021/09/30 07:41:50;;;;;;;48.70;19.58;;;16.10;99.90;;;;;;5014439;28;20026;-71
2021/09/30 07:44:17;;;;;;;21.20;10.98;;;16.20;99.90;;;;;;5013731;28;20034;-69
2021/09/30 07:46:44;;;;;;;16.17;10.15;;;16.20;99.90;;;;;;5013203;28;20034;-69
2021/09/30 07:49:12;;;;;;;14.65;8.32;;;16.20;99.90;;;;;;5014698;28;20029;-68
2021/09/30 07:51:39;;;;;;;38.72;16.77;;;16.10;99.90;;;;;;4997040;28;20026;-68
2021/09/30 07:54:06;;;;;;;121.40;48.17;;;16.10;99.90;;;;;;4996647;28;20471;-68
2021/09/30 07:56:33;;;;;;;107.32;42.90;;;16.10;99.90;;;;;;5014838;28;20071;-69
2021/09/30 07:58:59;;;;;;;109.85;44.42;;;16.10;99.90;;;;;;5014436;28;20030;-71
2021/09/30 08:01:25;;;;;;;152.18;58.65;;;16.00;99.90;;;;;;4996805;28;20022;-70
2021/09/30 08:03:51;;;;;;;48.28;19.95;;;16.10;99.90;;;;;;5014312;28;20024;-69
2021/09/30 08:06:18;;;;;;;25.48;11.88;;;16.10;99.90;;;;;;5014768;28;20037;-70
2021/09/30 08:08:44;;;;;;;29.48;13.30;;;16.10;99.90;;;;;;5013095;28;20030;-69
2021/09/30 08:11:10;;;;;;;25.17;13.27;;;16.10;99.90;;;;;;5012474;28;20029;-71
2021/09/30 08:13:36;;;;;;;30.52;15.68;;;16.10;99.90;;;;;;5014088;28;20484;-70
2021/09/30 08:16:03;;;;;;;24.02;12.52;;;16.10;99.90;;;;;;5014329;28;20104;-72
2021/09/30 08:18:28;;;;;;;26.73;11.80;;;16.00;99.90;;;;;;5012305;28;20097;-68
2021/09/30 08:20:54;;;;;;;24.35;10.95;;;16.00;99.90;;;;;;5013045;28;20034;-71
2021/09/30 08:23:21;;;;;;;18.25;10.65;;;16.10;99.90;;;;;;5011573;28;20534;-70
2021/09/30 08:25:47;;;;;;;21.58;12.63;;;16.00;99.90;;;;;;5011894;28;20034;-69
2021/09/30 08:28:13;;;;;;;27.10;13.60;;;16.10;99.90;;;;;;5013029;28;20033;-68
2021/09/30 08:30:41;;;;;;;21.65;12.07;;;16.00;99.90;;;;;;5012916;28;20402;-69
2021/09/30 08:33:08;;;;;;;31.85;12.52;;;16.00;99.90;;;;;;5001104;28;20411;-71
2021/09/30 08:35:35;;;;;;;21.65;11.68;;;15.80;99.90;;;;;;4976747;28;20034;-69
2021/09/30 08:38:01;;;;;;;22.90;11.93;;;15.80;99.90;;;;;;4994519;28;20041;-70
2021/09/30 08:40:27;;;;;;;22.10;13.52;;;15.70;99.90;;;;;;4976979;28;20022;-69
2021/09/30 08:42:55;;;;;;;20.70;13.23;;;15.70;99.90;;;;;;4994184;28;20026;-68
2021/09/30 08:45:22;;;;;;;18.60;11.63;;;15.60;99.90;;;;;;4977038;28;20038;-70
2021/09/30 08:47:58;;;;;;;23.33;11.95;;;15.60;99.90;;;;;;4994492;28;20034;-71
2021/09/30 08:50:25;;;;;;;21.00;11.68;;;15.60;99.90;;;;;;4994677;28;20037;-69
2021/09/30 08:52:51;;;;;;;16.40;10.50;;;15.60;99.90;;;;;;4994484;28;20057;-68
2021/09/30 08:55:17;;;;;;;17.13;10.80;;;15.50;99.90;;;;;;4994128;28;20390;-69
2021/09/30 08:57:47;;;;;;;18.23;10.65;;;15.50;99.90;;;;;;4994390;28;20037;-68
2021/09/30 09:00:16;;;;;;;25.65;12.48;;;15.60;99.90;;;;;;4994343;28;20033;-68
2021/09/30 09:02:51;;;;;;;20.48;12.32;;;15.50;99.90;;;;;;4994058;28;20475;-67
2021/09/30 09:05:19;;;;;;;19.20;11.75;;;15.50;99.90;;;;;;4994290;28;20065;-70
2021/09/30 09:08:11;;;;;;;23.80;12.27;;;15.40;99.90;;;;;;4976672;28;20109;-68
2021/09/30 09:10:42;;;;;;;19.02;11.95;;;15.40;99.90;;;;;;4990233;28;20042;-68
2021/09/30 09:13:17;;;;;;;17.27;11.77;;;15.40;99.90;;;;;;4993997;28;20081;-69
2021/09/30 09:15:47;;;;;;;20.88;13.10;;;15.40;99.90;;;;;;4994116;28;20030;-70
2021/09/30 09:18:20;;;;;;;22.75;14.00;;;15.40;99.90;;;;;;4994336;28;20057;-68
2021/09/30 09:21:07;;;;;;;22.17;13.40;;;15.40;99.90;;;;;;4976494;28;20045;-69
2021/09/30 09:23:54;;;;;;;20.67;13.90;;;15.40;99.90;;;;;;4993987;28;20045;-70
2021/09/30 09:26:34;;;;;;;24.08;13.35;;;15.40;99.90;;;;;;4975813;28;20115;-68
2021/09/30 09:29:01;;;;;;;31.70;17.35;;;15.30;99.90;;;;;;4976345;28;20023;-69
2021/09/30 09:31:46;;;;;;;24.60;16.63;;;15.30;99.90;;;;;;4994090;28;20120;-70
2021/09/30 09:34:36;;;;;;;32.75;19.52;;;15.30;99.90;;;;;;4992226;28;20038;-69
2021/09/30 09:37:24;;;;;;;32.63;16.33;;;15.30;99.90;;;;;;4993775;28;20061;-69
2021/09/30 09:39:51;;;;;;;26.83;17.38;;;15.20;99.90;;;;;;4991354;28;20042;-66
2021/09/30 09:42:25;;;;;;;25.80;17.92;;;15.20;99.90;;;;;;5024214;28;20049;-66
2021/09/30 09:44:51;;;;;;;22.75;15.07;;;15.20;99.90;;;;;;4992069;28;20038;-64
2021/09/30 09:47:38;;;;;;;27.80;17.15;;;15.20;99.90;;;;;;4993106;28;20434;-70
2021/09/30 09:50:36;;;;;;;31.63;19.08;;;15.20;99.90;;;;;;4993449;28;20468;-70
2021/09/30 09:53:02;;;;;;;35.42;22.13;;;15.20;99.90;;;;;;4990923;28;20399;-70
2021/09/30 09:55:39;;;;;;;46.05;27.35;;;15.20;99.90;;;;;;4993460;28;20093;-71
2021/09/30 09:58:11;;;;;;;40.70;22.83;;;15.20;99.90;;;;;;4992272;28;20105;-71
2021/09/30 10:00:39;;;;;;;30.33;19.90;;;15.20;99.90;;;;;;4993564;28;20029;-69
2021/09/30 10:03:14;;;;;;;29.83;17.80;;;15.20;99.90;;;;;;4993171;28;20034;-69
2021/09/30 10:05:40;;;;;;;36.70;17.92;;;15.20;99.90;;;;;;4992202;28;20047;-70
2021/09/30 10:08:07;;;;;;;28.88;19.10;;;15.20;99.90;;;;;;4993178;28;20093;-71
2021/09/30 10:10:37;;;;;;;32.03;19.15;;;15.20;99.90;;;;;;4992087;28;20033;-71
2021/09/30 10:13:04;;;;;;;36.45;19.38;;;15.30;99.90;;;;;;4992058;28;20032;-68
2021/09/30 10:15:32;;;;;;;33.90;18.48;;;15.30;99.90;;;;;;4993447;28;20030;-70
2021/09/30 10:17:58;;;;;;;24.02;16.58;;;15.30;99.90;;;;;;4993336;28;20022;-67
2021/09/30 10:20:25;;;;;;;31.45;17.60;;;15.20;99.90;;;;;;4993097;28;20088;-69
2021/09/30 10:22:55;;;;;;;28.58;16.83;;;15.30;99.90;;;;;;4991894;28;20439;-69
2021/09/30 10:25:22;;;;;;;30.08;16.88;;;15.30;99.90;;;;;;4993031;28;20033;-69
2021/09/30 10:27:56;;;;;;;25.60;17.35;;;15.30;99.90;;;;;;4993059;28;20378;-68
2021/09/30 10:30:39;;;;;;;24.05;16.33;;;15.40;99.90;;;;;;4993514;28;20026;-69
2021/09/30 10:33:09;;;;;;;29.38;17.13;;;15.30;99.90;;;;;;4992732;28;20154;-69
2021/09/30 10:35:47;;;;;;;35.95;17.70;;;15.40;99.90;;;;;;4993186;28;20089;-69
2021/09/30 10:38:25;;;;;;;30.70;18.60;;;15.40;99.90;;;;;;4975749;28;20134;-70
2021/09/30 10:41:13;;;;;;;29.13;18.05;;;15.40;99.90;;;;;;4976502;28;20033;-71
2021/09/30 10:43:45;;;;;;;30.90;18.75;;;15.40;99.90;;;;;;4996727;28;20037;-70
2021/09/30 10:46:40;;;;;;;27.10;16.88;;;15.40;99.90;;;;;;4996882;28;20422;-68
2021/09/30 10:49:47;;;;;;;24.60;16.30;;;15.40;99.90;;;;;;4994185;28;20046;-70
2021/09/30 10:52:31;;;;;;;23.00;16.20;;;15.40;99.90;;;;;;4979201;28;20502;-67
2021/09/30 10:55:00;;;;;;;24.30;16.08;;;15.40;99.90;;;;;;4996509;28;20125;-72
2021/09/30 10:57:44;;;;;;;25.58;16.48;;;15.40;99.90;;;;;;4996941;28;20042;-69
2021/09/30 11:00:11;;;;;;;20.45;15.43;;;15.40;99.90;;;;;;4979067;28;20050;-70
2021/09/30 11:03:02;;;;;;;25.10;14.95;;;15.30;99.90;;;;;;4996433;28;20034;-68
2021/09/30 11:05:36;;;;;;;21.80;15.32;;;15.30;99.90;;;;;;4978884;28;20048;-69
2021/09/30 11:08:29;;;;;;;26.98;16.25;;;15.40;99.90;;;;;;4996645;28;20456;-69
2021/09/30 11:11:07;;;;;;;24.83;16.25;;;15.30;99.90;;;;;;4996317;28;20054;-68
2021/09/30 11:13:49;;;;;;;22.65;15.48;;;15.40;99.90;;;;;;4996133;28;20034;-68
2021/09/30 11:16:20;;;;;;;29.55;18.33;;;15.50;99.90;;;;;;4996213;28;20037;-68
2021/09/30 11:19:00;;;;;;;28.27;17.23;;;15.60;99.90;;;;;;4996144;28;20045;-68
2021/09/30 11:21:31;;;;;;;25.92;16.35;;;15.70;99.90;;;;;;4996152;28;20030;-72
2021/09/30 11:24:09;;;;;;;21.38;15.63;;;15.80;99.90;;;;;;4996119;28;20109;-71
2021/09/30 11:26:53;;;;;;;23.50;15.43;;;15.80;99.90;;;;;;4996041;28;20049;-71
2021/09/30 11:29:22;;;;;;;23.05;14.18;;;15.90;99.90;;;;;;4996074;28;20114;-69
2021/09/30 11:31:48;;;;;;;21.60;14.30;;;16.00;99.90;;;;;;4995664;28;20456;-71
2021/09/30 11:34:38;;;;;;;24.83;14.68;;;16.10;99.90;;;;;;4978400;28;20412;-68
2021/09/30 11:37:20;;;;;;;25.02;15.05;;;16.10;99.90;;;;;;4993927;28;20094;-71
2021/09/30 11:39:49;;;;;;;24.05;15.15;;;16.20;99.90;;;;;;4976992;28;20364;-70
2021/09/30 11:42:24;;;;;;;24.08;15.85;;;16.20;99.90;;;;;;4995714;28;20070;-69
2021/09/30 11:45:02;;;;;;;23.35;14.90;;;16.30;99.90;;;;;;4995780;28;20030;-70
2021/09/30 11:47:30;;;;;;;22.45;14.88;;;16.20;99.90;;;;;;4995425;28;20499;-69
2021/09/30 11:49:56;;;;;;;21.23;14.43;;;16.30;99.90;;;;;;4995681;28;20459;-69
2021/09/30 11:52:23;;;;;;;20.02;15.23;;;16.30;99.90;;;;;;4994526;28;20026;-72
2021/09/30 11:54:49;;;;;;;23.38;14.80;;;16.30;99.90;;;;;;4995205;28;20108;-68
2021/09/30 11:57:23;;;;;;;21.58;14.75;;;16.40;99.90;;;;;;4978052;28;20057;-69
2021/09/30 11:59:49;;;;;;;21.83;14.02;;;16.40;99.90;;;;;;4977962;28;20037;-70
2021/09/30 12:02:16;;;;;;;22.50;16.25;;;16.50;99.90;;;;;;4995734;28;20194;-68
2021/09/30 12:04:47;;;;;;;26.10;17.17;;;16.40;99.90;;;;;;4995338;28;20040;-70
2021/09/30 12:07:16;;;;;;;;;;;16.30;99.90;;;;;;4977942;28;20026;-68
2021/09/30 12:09:42;;;;;;;22.90;15.85;;;16.30;99.90;;;;;;4995230;28;19910;-70
2021/09/30 12:12:08;;;;;;;22.60;15.05;;;16.20;99.90;;;;;;4977615;28;20081;-70
2021/09/30 12:14:46;;;;;;;23.10;13.55;;;16.30;99.90;;;;;;4994995;28;20053;-69
2021/09/30 12:17:17;;;;;;;22.13;13.75;;;16.30;99.90;;;;;;4995197;28;20040;-69
2021/09/30 12:19:51;;;;;;;29.20;13.88;;;16.20;99.90;;;;;;4995051;28;20041;-68
2021/09/30 12:22:27;;;;;;;22.30;15.82;;;16.20;99.90;;;;;;4977169;28;20038;-70
2021/09/30 12:24:59;;;;;;;19.83;14.30;;;16.10;99.90;;;;;;4994713;28;20387;-70
2021/09/30 12:27:30;;;;;;;22.35;15.27;;;16.10;99.90;;;;;;4994920;28;20034;-70
2021/09/30 12:30:07;;;;;;;22.55;15.30;;;16.00;99.90;;;;;;4994457;28;20513;-68
2021/09/30 12:32:35;;;;;;;21.20;16.42;;;16.00;99.90;;;;;;4994655;28;20046;-68
2021/09/30 12:35:24;;;;;;;23.98;16.65;;;15.90;99.90;;;;;;4994644;28;20038;-68
2021/09/30 12:38:05;;;;;;;23.60;16.00;;;15.90;99.90;;;;;;4980581;28;20442;-71
2021/09/30 12:40:34;;;;;;;27.30;15.23;;;15.90;99.90;;;;;;4994745;28;20057;-70
2021/09/30 12:43:15;;;;;;;30.60;15.73;;;15.90;99.90;;;;;;4977078;28;20280;-69
2021/09/30 12:45:47;;;;;;;37.93;15.27;;;15.90;99.90;;;;;;4994687;28;20030;-70
2021/09/30 12:48:16;;;;;;;25.52;14.65;;;15.90;99.90;;;;;;4977087;28;20264;-70
2021/09/30 12:50:48;;;;;;;24.00;14.73;;;15.80;99.90;;;;;;4994510;28;20028;-70
2021/09/30 12:53:17;;;;;;;28.00;16.98;;;15.90;99.90;;;;;;4994424;28;20486;-69
2021/09/30 12:55:43;;;;;;;25.02;15.45;;;15.80;99.90;;;;;;4994378;28;20027;-69
2021/09/30 12:58:32;;;;;;;24.42;15.43;;;15.80;99.90;;;;;;4976951;28;20037;-69
2021/09/30 13:01:19;;;;;;;25.40;16.15;;;15.80;99.90;;;;;;4994193;28;20080;-70
2021/09/30 13:04:09;;;;;;;20.70;14.20;;;15.80;99.90;;;;;;4994015;28;20030;-68
2021/09/30 13:06:36;;;;;;;18.27;14.00;;;15.80;99.90;;;;;;4976770;28;20026;-69
2021/09/30 13:09:04;;;;;;;25.15;14.60;;;15.80;99.90;;;;;;4994213;28;20029;-69
2021/09/30 13:11:35;;;;;;;24.27;15.85;;;15.80;99.90;;;;;;4994272;28;20114;-70
2021/09/30 13:14:22;;;;;;;22.63;14.10;;;15.90;99.90;;;;;;4976618;28;20030;-69
2021/09/30 13:17:08;;;;;;;23.73;14.35;;;15.90;99.90;;;;;;4994066;28;20419;-70
2021/09/30 13:19:54;;;;;;;23.00;14.77;;;16.00;99.90;;;;;;4993598;28;20035;-69
2021/09/30 13:22:33;;;;;;;23.80;14.07;;;16.00;99.90;;;;;;4993930;28;20114;-70
2021/09/30 13:25:06;;;;;;;63.60;29.92;;;16.00;99.90;;;;;;4994217;28;20030;-68
2021/09/30 13:27:35;;;;;;;91.63;37.05;;;16.10;99.90;;;;;;4993920;28;20471;-69
2021/09/30 13:30:05;;;;;;;50.70;24.60;;;16.10;99.90;;;;;;4993819;28;20034;-69
2021/09/30 13:32:32;;;;;;;48.00;25.35;;;16.10;99.90;;;;;;4993571;28;20501;-68
2021/09/30 13:34:59;;;;;;;140.90;55.00;;;16.10;99.90;;;;;;4976100;28;20391;-69
2021/09/30 13:37:31;;;;;;;54.65;28.23;;;16.10;99.90;;;;;;4976228;28;20508;-68
2021/09/30 13:40:00;;;;;;;28.92;20.70;;;16.10;99.90;;;;;;4993362;28;20113;-67
2021/09/30 13:42:28;;;;;;;33.38;20.63;;;16.00;99.90;;;;;;4993720;28;20502;-66
2021/09/30 13:44:56;;;;;;;31.48;20.88;;;16.10;99.90;;;;;;4993624;28;20100;-68
2021/09/30 13:47:23;;;;;;;39.90;22.58;;;16.00;99.90;;;;;;4993653;28;20018;-67
2021/09/30 13:49:49;;;;;;;41.25;23.15;;;16.00;99.90;;;;;;4976175;28;20033;-66
2021/09/30 13:52:15;;;;;;;27.05;18.92;;;15.90;99.90;;;;;;4993879;28;20030;-68
2021/09/30 13:54:41;;;;;;;38.35;19.85;;;15.90;99.90;;;;;;4993510;28;20124;-67
2021/09/30 13:57:07;;;;;;;35.63;20.30;;;15.90;99.90;;;;;;4993530;28;20420;-69
2021/09/30 13:59:33;;;;;;;29.05;18.05;;;15.80;99.90;;;;;;4975961;28;20022;-68
2021/09/30 14:01:58;;;;;;;30.15;19.55;;;15.80;99.90;;;;;;4976007;28;20392;-69
2021/09/30 14:04:24;;;;;;;30.30;20.05;;;15.80;99.90;;;;;;4975979;28;20038;-68
2021/09/30 14:06:52;;;;;;;25.15;18.45;;;15.80;99.90;;;;;;4993132;28;20026;-66
2021/09/30 14:09:18;;;;;;;35.22;20.27;;;15.70;99.90;;;;;;4993503;28;20069;-67
2021/09/30 14:11:44;;;;;;;29.42;19.08;;;15.70;99.90;;;;;;4993496;28;20018;-67
2021/09/30 14:14:09;;;;;;;37.40;21.83;;;15.60;99.90;;;;;;4993378;28;20042;-68
2021/09/30 14:16:35;;;;;;;34.55;21.13;;;15.60;99.90;;;;;;4994798;28;20069;-68
2021/09/30 14:19:01;;;;;;;39.88;22.90;;;15.60;99.90;;;;;;4997157;28;20050;-67
2021/09/30 14:21:27;;;;;;;60.13;30.50;;;15.60;99.90;;;;;;4996717;28;20022;-69
2021/09/30 14:23:53;;;;;;;50.50;26.38;;;15.60;99.90;;;;;;4979117;28;20080;-69
2021/09/30 14:26:19;;;;;;;45.63;25.48;;;15.60;99.90;;;;;;4996858;28;20027;-70
2021/09/30 14:28:45;;;;;;;38.47;25.73;;;15.50;99.90;;;;;;4979720;28;20026;-73
2021/09/30 14:31:11;;;;;;;38.92;25.75;;;15.50;99.90;;;;;;4976872;28;20026;-68
2021/09/30 14:33:38;;;;;;;28.67;20.42;;;15.50;99.90;;;;;;4995746;28;20471;-69
2021/09/30 14:36:05;;;;;;;27.05;19.42;;;15.50;99.90;;;;;;4996983;28;20022;-69
2021/09/30 14:38:31;;;;;;;24.10;18.83;;;15.50;99.90;;;;;;4997024;28;20076;-68
2021/09/30 14:40:57;;;;;;;27.08;19.58;;;15.50;99.90;;;;;;4995738;28;20026;-69
2021/09/30 14:43:35;;;;;;;29.95;20.85;;;15.60;99.90;;;;;;4978727;28;20058;-67
2021/09/30 14:46:02;;;;;;;30.45;19.88;;;15.60;99.90;;;;;;4996773;28;20093;-70
2021/09/30 14:48:28;;;;;;;27.88;20.05;;;15.60;99.90;;;;;;4979066;28;20027;-67
2021/09/30 14:50:53;;;;;;;32.75;23.02;;;15.50;99.90;;;;;;4996801;28;20023;-70
2021/09/30 14:53:20;;;;;;;39.10;25.83;;;15.50;99.90;;;;;;4996460;28;20110;-67
2021/09/30 14:55:46;;;;;;;33.65;25.92;;;15.50;99.90;;;;;;4993242;28;20356;-70
2021/09/30 14:58:12;;;;;;;40.58;26.88;;;15.40;99.90;;;;;;4996606;28;20459;-68
2021/09/30 15:00:38;;;;;;;40.17;27.83;;;15.50;99.90;;;;;;4996199;28;20053;-70
2021/09/30 15:03:05;;;;;;;39.13;26.17;;;15.50;99.90;;;;;;4996339;28;20440;-71
2021/09/30 15:05:34;;;;;;;37.40;26.17;;;15.50;99.90;;;;;;4992063;28;20037;-67
2021/09/30 15:08:01;;;;;;;37.60;27.10;;;15.50;99.90;;;;;;4977735;28;20084;-71
2021/09/30 15:10:28;;;;;;;43.92;29.10;;;15.50;99.90;;;;;;4995747;28;20029;-67
2021/09/30 15:12:55;;;;;;;41.25;27.77;;;15.40;99.90;;;;;;4976795;28;20386;-66
2021/09/30 15:15:22;;;;;;;42.17;28.58;;;15.40;99.90;;;;;;4994549;28;20030;-67
2021/09/30 15:17:57;;;;;;;35.97;27.23;;;15.40;99.90;;;;;;4978152;28;20022;-68
2021/09/30 15:23:18;;;;;;;39.63;27.33;;;15.50;99.90;;;;;;4972100;28;20042;-68
2021/09/30 15:25:46;;;;;;;45.20;28.40;;;15.40;99.90;;;;;;4995492;28;20121;-68
2021/09/30 15:28:15;;;;;;;35.78;26.15;;;15.40;99.90;;;;;;4995062;28;20463;-68
2021/09/30 15:30:42;;;;;;;43.00;29.55;;;15.40;99.90;;;;;;4977938;28;20459;-68
2021/09/30 15:33:12;;;;;;;77.22;43.58;;;15.40;99.90;;;;;;4994267;28;20084;-67
2021/09/30 15:35:40;;;;;;;74.93;45.30;;;15.50;99.90;;;;;;4977980;28;20058;-66
2021/09/30 15:38:06;;;;;;;82.20;49.22;;;15.40;99.90;;;;;;4994779;28;20108;-70
2021/09/30 15:40:32;;;;;;;45.83;30.05;;;15.50;99.90;;;;;;4995462;28;20030;-70
2021/09/30 15:42:58;;;;;;;62.60;37.78;;;15.40;99.90;;;;;;4995611;28;20077;-66
2021/09/30 15:45:23;;;;;;;40.85;26.58;;;15.40;99.90;;;;;;4995803;28;20118;-65